sensor_id;sensor_type;location;lat;lon;timestamp;pressure;altitude;pressure_sealevel;temperature;humidity
54806;BME280;62866;55.776;37.496;2023-04-19T00:02:16;100761.28;;;10.50;42.91
54806;BME280;62866;55.776;37.496;2023-04-19T00:04:43;100755.25;;;10.48;42.91
54806;BME280;62866;55.776;37.496;2023-04-19T00:07:12;100762.63;;;10.46;42.99
54806;BME280;62866;55.776;37.496;2023-04-19T00:09:38;100757.59;;;10.43;42.98
54806;BME280;62866;55.776;37.496;2023-04-19T00:12:04;100767.78;;;10.47;43.08
54806;BME280;62866;55.776;37.496;2023-04-19T00:14:30;100768.97;;;10.45;42.88
54806;BME280;62866;55.776;37.496;2023-04-19T00:16:55;100773.66;;;10.43;43.21
54806;BME280;62866;55.776;37.496;2023-04-19T00:19:21;100761.59;;;10.39;43.32
54806;BME280;62866;55.776;37.496;2023-04-19T00:21:48;100773.13;;;10.39;43.06
54806;BME280;62866;55.776;37.496;2023-04-19T00:24:13;100761.75;;;10.29;43.44
54806;BME280;62866;55.776;37.496;2023-04-19T00:26:39;100771.41;;;10.30;43.59
54806;BME280;62866;55.776;37.496;2023-04-19T00:29:04;100769.09;;;10.27;43.14
54806;BME280;62866;55.776;37.496;2023-04-19T00:31:30;100768.91;;;10.20;43.09
54806;BME280;62866;55.776;37.496;2023-04-19T00:33:56;100770.91;;;10.18;43.17
54806;BME280;62866;55.776;37.496;2023-04-19T00:36:22;100767.19;;;10.11;43.17
54806;BME280;62866;55.776;37.496;2023-04-19T00:38:47;100756.63;;;10.02;43.32
54806;BME280;62866;55.776;37.496;2023-04-19T00:41:13;100780.69;;;10.10;43.18
54806;BME280;62866;55.776;37.496;2023-04-19T00:43:38;100775.34;;;10.10;43.45
54806;BME280;62866;55.776;37.496;2023-04-19T00:46:04;100784.22;;;10.10;43.18
54806;BME280;62866;55.776;37.496;2023-04-19T00:48:30;100786.00;;;10.02;43.39
54806;BME280;62866;55.776;37.496;2023-04-19T00:50:56;100776.78;;;9.96;43.59
54806;BME280;62866;55.776;37.496;2023-04-19T00:53:21;100791.34;;;10.02;43.44
54806;BME280;62866;55.776;37.496;2023-04-19T00:55:47;100787.84;;;10.01;43.66
54806;BME280;62866;55.776;37.496;2023-04-19T00:58:16;100776.97;;;9.95;43.52
54806;BME280;62866;55.776;37.496;2023-04-19T01:00:43;100783.50;;;10.00;43.45
54806;BME280;62866;55.776;37.496;2023-04-19T01:03:08;100777.13;;;9.93;43.65
54806;BME280;62866;55.776;37.496;2023-04-19T01:05:34;100767.09;;;9.87;43.72
54806;BME280;62866;55.776;37.496;2023-04-19T01:08:00;100777.09;;;9.85;43.55
54806;BME280;62866;55.776;37.496;2023-04-19T01:10:26;100782.56;;;9.83;43.74
54806;BME280;62866;55.776;37.496;2023-04-19T01:12:51;100790.44;;;9.85;43.85
54806;BME280;62866;55.776;37.496;2023-04-19T01:15:17;100789.91;;;9.81;44.08
54806;BME280;62866;55.776;37.496;2023-04-19T01:17:43;100790.59;;;9.83;43.72
54806;BME280;62866;55.776;37.496;2023-04-19T01:20:08;100785.34;;;9.74;43.70
54806;BME280;62866;55.776;37.496;2023-04-19T01:22:35;100796.56;;;9.77;43.82
54806;BME280;62866;55.776;37.496;2023-04-19T01:25:03;100792.88;;;9.70;43.93
54806;BME280;62866;55.776;37.496;2023-04-19T01:27:29;100793.03;;;9.69;43.82
54806;BME280;62866;55.776;37.496;2023-04-19T01:29:54;100794.00;;;9.68;43.89
54806;BME280;62866;55.776;37.496;2023-04-19T01:32:20;100790.59;;;9.58;44.06
54806;BME280;62866;55.776;37.496;2023-04-19T01:34:47;100795.09;;;9.57;44.23
54806;BME280;62866;55.776;37.496;2023-04-19T01:37:12;100790.25;;;9.52;44.18
54806;BME280;62866;55.776;37.496;2023-04-19T01:39:38;100783.25;;;9.51;44.37
54806;BME280;62866;55.776;37.496;2023-04-19T01:42:03;100791.53;;;9.48;44.26
54806;BME280;62866;55.776;37.496;2023-04-19T01:44:29;100787.53;;;9.44;44.34
54806;BME280;62866;55.776;37.496;2023-04-19T01:46:55;100788.38;;;9.45;44.27
54806;BME280;62866;55.776;37.496;2023-04-19T01:49:20;100789.22;;;9.45;44.58
54806;BME280;62866;55.776;37.496;2023-04-19T01:51:46;100786.00;;;9.42;44.44
54806;BME280;62866;55.776;37.496;2023-04-19T01:54:11;100783.88;;;9.45;44.83
54806;BME280;62866;55.776;37.496;2023-04-19T01:56:37;100782.84;;;9.46;45.01
54806;BME280;62866;55.776;37.496;2023-04-19T01:59:02;100785.53;;;9.46;44.46
54806;BME280;62866;55.776;37.496;2023-04-19T02:01:28;100782.19;;;9.44;44.79
54806;BME280;62866;55.776;37.496;2023-04-19T02:03:54;100767.13;;;9.35;44.89
54806;BME280;62866;55.776;37.496;2023-04-19T02:06:19;100772.47;;;9.35;44.84
54806;BME280;62866;55.776;37.496;2023-04-19T02:08:45;100780.66;;;9.42;45.01
54806;BME280;62866;55.776;37.496;2023-04-19T02:11:12;100768.78;;;9.36;44.90
54806;BME280;62866;55.776;37.496;2023-04-19T02:13:41;100768.47;;;9.39;44.86
54806;BME280;62866;55.776;37.496;2023-04-19T02:16:07;100772.34;;;9.45;44.67
54806;BME280;62866;55.776;37.496;2023-04-19T02:18:33;100786.38;;;9.47;44.86
54806;BME280;62866;55.776;37.496;2023-04-19T02:21:07;100775.88;;;9.45;45.04
54806;BME280;62866;55.776;37.496;2023-04-19T02:23:33;100785.53;;;9.46;44.94
54806;BME280;62866;55.776;37.496;2023-04-19T02:25:59;100781.22;;;9.45;44.99
54806;BME280;62866;55.776;37.496;2023-04-19T02:28:31;100788.03;;;9.48;45.21
54806;BME280;62866;55.776;37.496;2023-04-19T02:30:57;100789.25;;;9.54;45.13
54806;BME280;62866;55.776;37.496;2023-04-19T02:33:24;100795.75;;;9.51;44.95
54806;BME280;62866;55.776;37.496;2023-04-19T02:35:50;100792.59;;;9.56;44.90
54806;BME280;62866;55.776;37.496;2023-04-19T02:38:16;100790.41;;;9.51;45.21
54806;BME280;62866;55.776;37.496;2023-04-19T02:40:42;100796.59;;;9.51;45.06
54806;BME280;62866;55.776;37.496;2023-04-19T02:43:08;100795.59;;;9.52;45.32
54806;BME280;62866;55.776;37.496;2023-04-19T02:45:33;100795.59;;;9.52;45.20
54806;BME280;62866;55.776;37.496;2023-04-19T02:47:59;100795.41;;;9.54;45.44
54806;BME280;62866;55.776;37.496;2023-04-19T02:50:26;100799.59;;;9.57;45.35
54806;BME280;62866;55.776;37.496;2023-04-19T02:52:51;100796.78;;;9.58;45.45
54806;BME280;62866;55.776;37.496;2023-04-19T02:55:17;100791.28;;;9.60;45.29
54806;BME280;62866;55.776;37.496;2023-04-19T02:57:42;100790.16;;;9.62;45.17
54806;BME280;62866;55.776;37.496;2023-04-19T03:00:08;100794.47;;;9.63;45.02
54806;BME280;62866;55.776;37.496;2023-04-19T03:02:35;100791.00;;;9.71;45.26
54806;BME280;62866;55.776;37.496;2023-04-19T03:05:01;100802.53;;;9.71;45.36
54806;BME280;62866;55.776;37.496;2023-04-19T03:07:26;100793.06;;;9.77;45.27
54806;BME280;62866;55.776;37.496;2023-04-19T03:09:52;100797.91;;;9.81;44.97
54806;BME280;62866;55.776;37.496;2023-04-19T03:12:17;100794.25;;;9.82;45.20
54806;BME280;62866;55.776;37.496;2023-04-19T03:14:43;100794.25;;;9.82;44.87
54806;BME280;62866;55.776;37.496;2023-04-19T03:17:09;100797.28;;;9.87;45.09
54806;BME280;62866;55.776;37.496;2023-04-19T03:19:34;100782.38;;;9.77;44.75
54806;BME280;62866;55.776;37.496;2023-04-19T03:22:00;100799.13;;;9.87;44.66
54806;BME280;62866;55.776;37.496;2023-04-19T03:24:29;100797.28;;;9.87;44.76
54806;BME280;62866;55.776;37.496;2023-04-19T03:26:55;100784.09;;;9.86;44.68
54806;BME280;62866;55.776;37.496;2023-04-19T03:29:21;100790.47;;;9.93;44.84
54806;BME280;62866;55.776;37.496;2023-04-19T03:31:47;100797.53;;;10.02;44.50
54806;BME280;62866;55.776;37.496;2023-04-19T03:34:13;100797.38;;;10.04;44.37
54806;BME280;62866;55.776;37.496;2023-04-19T03:36:39;100800.06;;;10.04;44.17
54806;BME280;62866;55.776;37.496;2023-04-19T03:39:05;100798.56;;;10.09;44.07
54806;BME280;62866;55.776;37.496;2023-04-19T03:41:31;100796.56;;;10.11;44.17
54806;BME280;62866;55.776;37.496;2023-04-19T03:43:57;100798.91;;;10.14;43.92
54806;BME280;62866;55.776;37.496;2023-04-19T03:46:23;100803.97;;;10.17;44.31
54806;BME280;62866;55.776;37.496;2023-04-19T03:48:48;100796.63;;;10.19;44.01
54806;BME280;62866;55.776;37.496;2023-04-19T03:51:14;100796.84;;;10.34;44.01
54806;BME280;62866;55.776;37.496;2023-04-19T03:53:41;100801.53;;;10.40;43.87
54806;BME280;62866;55.776;37.496;2023-04-19T03:56:06;100802.22;;;10.50;43.30
54806;BME280;62866;55.776;37.496;2023-04-19T03:58:32;100798.25;;;10.54;43.63
54806;BME280;62866;55.776;37.496;2023-04-19T04:00:58;100800.56;;;10.57;43.60
54806;BME280;62866;55.776;37.496;2023-04-19T04:03:24;100812.50;;;10.71;43.33
54806;BME280;62866;55.776;37.496;2023-04-19T04:05:49;100806.97;;;10.89;42.79
54806;BME280;62866;55.776;37.496;2023-04-19T04:08:15;100805.13;;;10.97;42.80
54806;BME280;62866;55.776;37.496;2023-04-19T04:10:40;100790.06;;;10.80;42.57
54806;BME280;62866;55.776;37.496;2023-04-19T04:13:06;100792.59;;;10.74;42.81
54806;BME280;62866;55.776;37.496;2023-04-19T04:15:31;100807.31;;;10.78;42.94
54806;BME280;62866;55.776;37.496;2023-04-19T04:17:57;100805.47;;;10.86;42.78
54806;BME280;62866;55.776;37.496;2023-04-19T04:20:23;100812.16;;;10.98;42.57
54806;BME280;62866;55.776;37.496;2023-04-19T04:22:48;100798.94;;;10.89;42.55
54806;BME280;62866;55.776;37.496;2023-04-19T04:25:14;100808.66;;;10.90;42.50
54806;BME280;62866;55.776;37.496;2023-04-19T04:27:42;100808.84;;;11.05;42.49
54806;BME280;62866;55.776;37.496;2023-04-19T04:30:12;100817.19;;;11.34;41.86
54806;BME280;62866;55.776;37.496;2023-04-19T04:32:37;100811.66;;;11.60;41.70
54806;BME280;62866;55.776;37.496;2023-04-19T04:35:06;100801.94;;;11.75;41.37
54806;BME280;62866;55.776;37.496;2023-04-19T04:37:35;100809.41;;;11.96;40.90
54806;BME280;62866;55.776;37.496;2023-04-19T04:40:12;100799.97;;;12.08;40.69
54806;BME280;62866;55.776;37.496;2023-04-19T04:42:38;100811.97;;;12.28;40.33
54806;BME280;62866;55.776;37.496;2023-04-19T04:45:05;100819.94;;;12.44;40.16
54806;BME280;62866;55.776;37.496;2023-04-19T04:47:31;100808.50;;;12.50;39.91
54806;BME280;62866;55.776;37.496;2023-04-19T04:49:58;100813.63;;;12.60;39.94
54806;BME280;62866;55.776;37.496;2023-04-19T04:52:24;100819.50;;;12.86;39.64
54806;BME280;62866;55.776;37.496;2023-04-19T04:54:49;100823.56;;;13.13;39.02
54806;BME280;62866;55.776;37.496;2023-04-19T04:57:15;100825.72;;;13.33;39.06
54806;BME280;62866;55.776;37.496;2023-04-19T04:59:41;100827.03;;;13.37;38.79
54806;BME280;62866;55.776;37.496;2023-04-19T05:02:06;100835.25;;;13.20;39.32
54806;BME280;62866;55.776;37.496;2023-04-19T05:04:32;100834.91;;;13.15;38.91
54806;BME280;62866;55.776;37.496;2023-04-19T05:06:57;100826.88;;;13.15;39.13
54806;BME280;62866;55.776;37.496;2023-04-19T05:09:23;100831.75;;;13.35;39.02
54806;BME280;62866;55.776;37.496;2023-04-19T05:11:48;100841.13;;;13.39;39.00
54806;BME280;62866;55.776;37.496;2023-04-19T05:14:14;100833.88;;;13.62;38.53
54806;BME280;62866;55.776;37.496;2023-04-19T05:16:40;100838.16;;;13.86;37.77
54806;BME280;62866;55.776;37.496;2023-04-19T05:19:05;100830.63;;;14.40;37.29
54806;BME280;62866;55.776;37.496;2023-04-19T05:21:33;100830.78;;;15.32;36.08
54806;BME280;62866;55.776;37.496;2023-04-19T05:23:58;100830.06;;;15.44;36.08
54806;BME280;62866;55.776;37.496;2023-04-19T05:26:24;100836.81;;;15.34;36.48
54806;BME280;62866;55.776;37.496;2023-04-19T05:28:50;100833.34;;;16.64;34.56
54806;BME280;62866;55.776;37.496;2023-04-19T05:31:15;100836.84;;;18.43;31.97
54806;BME280;62866;55.776;37.496;2023-04-19T05:33:42;100839.06;;;20.46;29.62
54806;BME280;62866;55.776;37.496;2023-04-19T05:36:08;100844.19;;;21.55;28.22
54806;BME280;62866;55.776;37.496;2023-04-19T05:38:33;100838.78;;;22.25;28.09
54806;BME280;62866;55.776;37.496;2023-04-19T05:40:59;100826.25;;;23.55;26.96
54806;BME280;62866;55.776;37.496;2023-04-19T05:43:25;100832.84;;;23.92;25.85
54806;BME280;62866;55.776;37.496;2023-04-19T05:45:50;100843.31;;;24.17;25.68
54806;BME280;62866;55.776;37.496;2023-04-19T05:48:16;100836.78;;;24.40;25.79
54806;BME280;62866;55.776;37.496;2023-04-19T05:50:41;100844.06;;;24.78;24.34
54806;BME280;62866;55.776;37.496;2023-04-19T05:53:07;100853.13;;;23.79;25.32
54806;BME280;62866;55.776;37.496;2023-04-19T05:55:32;100823.25;;;22.94;25.10
54806;BME280;62866;55.776;37.496;2023-04-19T05:57:58;100846.31;;;23.99;24.65
54806;BME280;62866;55.776;37.496;2023-04-19T06:00:23;100845.94;;;24.29;24.14
54806;BME280;62866;55.776;37.496;2023-04-19T06:02:49;100845.13;;;24.11;23.72
54806;BME280;62866;55.776;37.496;2023-04-19T06:05:14;100839.97;;;23.43;24.29
54806;BME280;62866;55.776;37.496;2023-04-19T06:07:40;100831.31;;;22.61;25.02
54806;BME280;62866;55.776;37.496;2023-04-19T06:10:06;100849.38;;;22.50;25.27
54806;BME280;62866;55.776;37.496;2023-04-19T06:12:32;100841.69;;;22.87;24.91
54806;BME280;62866;55.776;37.496;2023-04-19T06:14:58;100846.97;;;23.39;24.52
54806;BME280;62866;55.776;37.496;2023-04-19T06:17:23;100845.88;;;23.52;24.08
54806;BME280;62866;55.776;37.496;2023-04-19T06:19:53;100848.94;;;23.27;24.40
54806;BME280;62866;55.776;37.496;2023-04-19T06:22:19;100850.78;;;23.38;24.12
54806;BME280;62866;55.776;37.496;2023-04-19T06:24:45;100828.69;;;23.23;24.02
54806;BME280;62866;55.776;37.496;2023-04-19T06:27:11;100851.44;;;22.31;25.05
54806;BME280;62866;55.776;37.496;2023-04-19T06:29:37;100856.97;;;21.55;25.63
54806;BME280;62866;55.776;37.496;2023-04-19T06:32:03;100859.81;;;21.60;25.51
54806;BME280;62866;55.776;37.496;2023-04-19T06:34:28;100848.34;;;22.40;24.64
54806;BME280;62866;55.776;37.496;2023-04-19T06:36:54;100840.69;;;22.65;24.36
54806;BME280;62866;55.776;37.496;2023-04-19T06:39:19;100841.38;;;21.74;25.01
54806;BME280;62866;55.776;37.496;2023-04-19T06:41:45;100844.69;;;21.87;25.12
54806;BME280;62866;55.776;37.496;2023-04-19T06:44:11;100847.09;;;22.99;24.40
54806;BME280;62866;55.776;37.496;2023-04-19T06:46:38;100849.56;;;22.09;24.07
54806;BME280;62866;55.776;37.496;2023-04-19T06:49:03;100846.50;;;21.29;24.82
54806;BME280;62866;55.776;37.496;2023-04-19T06:51:29;100851.13;;;21.28;24.92
54806;BME280;62866;55.776;37.496;2023-04-19T06:53:55;100853.31;;;21.61;24.92
54806;BME280;62866;55.776;37.496;2023-04-19T06:59:06;100838.41;;;23.64;22.22
54806;BME280;62866;55.776;37.496;2023-04-19T07:01:32;100838.88;;;23.44;22.22
54806;BME280;62866;55.776;37.496;2023-04-19T07:03:57;100843.91;;;23.35;22.58
54806;BME280;62866;55.776;37.496;2023-04-19T07:06:23;100836.88;;;23.23;22.71
54806;BME280;62866;55.776;37.496;2023-04-19T07:08:49;100837.97;;;23.38;22.23
54806;BME280;62866;55.776;37.496;2023-04-19T07:11:14;100841.75;;;22.64;22.24
54806;BME280;62866;55.776;37.496;2023-04-19T07:13:40;100844.31;;;21.49;23.15
54806;BME280;62866;55.776;37.496;2023-04-19T07:16:05;100844.97;;;21.03;23.50
54806;BME280;62866;55.776;37.496;2023-04-19T07:18:32;100836.41;;;20.88;24.19
54806;BME280;62866;55.776;37.496;2023-04-19T07:20:57;100841.00;;;21.70;23.52
54806;BME280;62866;55.776;37.496;2023-04-19T07:23:23;100839.75;;;22.08;23.01
54806;BME280;62866;55.776;37.496;2023-04-19T07:25:49;100834.72;;;22.40;23.20
54806;BME280;62866;55.776;37.496;2023-04-19T07:28:14;100845.75;;;22.10;22.75
54806;BME280;62866;55.776;37.496;2023-04-19T07:30:40;100827.88;;;21.90;22.79
54806;BME280;62866;55.776;37.496;2023-04-19T07:33:06;100838.69;;;21.97;22.75
54806;BME280;62866;55.776;37.496;2023-04-19T07:35:33;100848.00;;;21.89;22.96
54806;BME280;62866;55.776;37.496;2023-04-19T07:38:00;100824.63;;;22.40;23.07
54806;BME280;62866;55.776;37.496;2023-04-19T07:40:26;100825.00;;;23.62;21.94
54806;BME280;62866;55.776;37.496;2023-04-19T07:42:54;100825.44;;;24.26;21.48
54806;BME280;62866;55.776;37.496;2023-04-19T07:45:20;100834.88;;;24.40;21.00
54806;BME280;62866;55.776;37.496;2023-04-19T07:47:45;100827.91;;;24.11;21.00
54806;BME280;62866;55.776;37.496;2023-04-19T07:50:11;100837.34;;;24.64;20.91
54806;BME280;62866;55.776;37.496;2023-04-19T07:52:36;100835.91;;;24.56;21.06
54806;BME280;62866;55.776;37.496;2023-04-19T07:55:02;100833.94;;;24.13;21.38
54806;BME280;62866;55.776;37.496;2023-04-19T07:57:28;100839.41;;;24.51;20.69
54806;BME280;62866;55.776;37.496;2023-04-19T07:59:53;100827.72;;;24.83;20.53
54806;BME280;62866;55.776;37.496;2023-04-19T08:02:23;100829.34;;;25.06;20.13
54806;BME280;62866;55.776;37.496;2023-04-19T08:04:49;100832.13;;;25.11;20.03
54806;BME280;62866;55.776;37.496;2023-04-19T08:07:16;100827.53;;;24.89;20.18
54806;BME280;62866;55.776;37.496;2023-04-19T08:09:42;100816.97;;;24.49;20.73
54806;BME280;62866;55.776;37.496;2023-04-19T08:12:07;100820.19;;;24.46;20.44
54806;BME280;62866;55.776;37.496;2023-04-19T08:14:33;100819.19;;;24.79;20.54
54806;BME280;62866;55.776;37.496;2023-04-19T08:16:58;100836.00;;;25.79;20.11
54806;BME280;62866;55.776;37.496;2023-04-19T08:19:24;100829.25;;;26.33;19.94
54806;BME280;62866;55.776;37.496;2023-04-19T08:21:49;100823.94;;;26.17;19.95
54806;BME280;62866;55.776;37.496;2023-04-19T08:24:15;100833.97;;;26.48;19.88
54806;BME280;62866;55.776;37.496;2023-04-19T08:26:40;100821.16;;;26.74;19.94
54806;BME280;62866;55.776;37.496;2023-04-19T08:29:06;100837.88;;;26.67;19.38
54806;BME280;62866;55.776;37.496;2023-04-19T08:31:32;100831.88;;;26.18;19.36
54806;BME280;62866;55.776;37.496;2023-04-19T08:33:57;100831.53;;;26.04;19.56
54806;BME280;62866;55.776;37.496;2023-04-19T08:36:24;100822.00;;;26.17;19.96
54806;BME280;62866;55.776;37.496;2023-04-19T08:38:52;100827.13;;;26.56;19.96
54806;BME280;62866;55.776;37.496;2023-04-19T08:41:18;100826.31;;;26.50;20.10
54806;BME280;62866;55.776;37.496;2023-04-19T08:43:46;100829.03;;;26.50;19.86
54806;BME280;62866;55.776;37.496;2023-04-19T08:46:15;100825.88;;;25.79;20.18
54806;BME280;62866;55.776;37.496;2023-04-19T08:48:42;100820.66;;;25.41;20.18
54806;BME280;62866;55.776;37.496;2023-04-19T08:51:11;100828.41;;;25.86;20.45
54806;BME280;62866;55.776;37.496;2023-04-19T08:53:38;100816.81;;;26.21;20.25
54806;BME280;62866;55.776;37.496;2023-04-19T08:56:06;100812.66;;;26.08;20.56
54806;BME280;62866;55.776;37.496;2023-04-19T08:58:32;100809.59;;;25.99;20.86
54806;BME280;62866;55.776;37.496;2023-04-19T09:00:58;100819.19;;;25.01;21.79
54806;BME280;62866;55.776;37.496;2023-04-19T09:03:23;100825.00;;;23.62;22.98
54806;BME280;62866;55.776;37.496;2023-04-19T09:05:50;100808.81;;;23.11;23.41
54806;BME280;62866;55.776;37.496;2023-04-19T09:08:23;100820.56;;;23.28;23.32
54806;BME280;62866;55.776;37.496;2023-04-19T09:10:56;100825.72;;;22.79;23.84
54806;BME280;62866;55.776;37.496;2023-04-19T09:13:23;100812.66;;;22.69;23.43
54806;BME280;62866;55.776;37.496;2023-04-19T09:15:49;100813.69;;;22.92;22.73
54806;BME280;62866;55.776;37.496;2023-04-19T09:18:15;100803.22;;;22.60;23.28
54806;BME280;62866;55.776;37.496;2023-04-19T09:20:43;100802.78;;;22.12;23.51
54806;BME280;62866;55.776;37.496;2023-04-19T09:23:10;100814.25;;;21.32;24.41
54806;BME280;62866;55.776;37.496;2023-04-19T09:25:37;100812.00;;;20.39;24.69
54806;BME280;62866;55.776;37.496;2023-04-19T09:28:10;100791.59;;;19.51;25.36
54806;BME280;62866;55.776;37.496;2023-04-19T09:30:37;100796.34;;;19.30;25.68
54806;BME280;62866;55.776;37.496;2023-04-19T09:33:03;100789.47;;;19.03;26.18
54806;BME280;62866;55.776;37.496;2023-04-19T09:35:47;100796.41;;;18.92;26.17
54806;BME280;62866;55.776;37.496;2023-04-19T09:38:16;100797.69;;;18.90;26.49
54806;BME280;62866;55.776;37.496;2023-04-19T09:40:42;100794.81;;;18.78;26.68
54806;BME280;62866;55.776;37.496;2023-04-19T09:43:08;100787.84;;;18.51;27.27
54806;BME280;62866;55.776;37.496;2023-04-19T09:45:42;100789.81;;;18.37;27.45
54806;BME280;62866;55.776;37.496;2023-04-19T09:48:09;100793.81;;;18.28;27.97
54806;BME280;62866;55.776;37.496;2023-04-19T09:50:35;100781.59;;;18.06;27.99
54806;BME280;62866;55.776;37.496;2023-04-19T09:53:02;100794.03;;;18.20;27.58
54806;BME280;62866;55.776;37.496;2023-04-19T09:55:28;100779.69;;;18.13;27.60
54806;BME280;62866;55.776;37.496;2023-04-19T09:57:55;100796.63;;;17.95;27.90
54806;BME280;62866;55.776;37.496;2023-04-19T10:00:21;100791.03;;;17.90;28.96
54806;BME280;62866;55.776;37.496;2023-04-19T10:02:50;100793.91;;;17.95;28.92
54806;BME280;62866;55.776;37.496;2023-04-19T10:05:20;100784.31;;;17.99;29.20
54806;BME280;62866;55.776;37.496;2023-04-19T10:07:48;100785.75;;;18.08;29.25
54806;BME280;62866;55.776;37.496;2023-04-19T10:10:15;100784.69;;;18.16;28.51
54806;BME280;62866;55.776;37.496;2023-04-19T10:12:47;100785.50;;;18.23;28.46
54806;BME280;62866;55.776;37.496;2023-04-19T10:15:13;100780.47;;;18.27;28.32
54806;BME280;62866;55.776;37.496;2023-04-19T10:17:39;100779.03;;;18.24;28.58
54806;BME280;62866;55.776;37.496;2023-04-19T10:20:15;100775.09;;;18.20;29.04
54806;BME280;62866;55.776;37.496;2023-04-19T10:22:41;100779.41;;;18.34;29.08
54806;BME280;62866;55.776;37.496;2023-04-19T10:25:12;100775.28;;;18.25;29.45
54806;BME280;62866;55.776;37.496;2023-04-19T10:27:39;100777.41;;;18.10;29.52
54806;BME280;62866;55.776;37.496;2023-04-19T10:30:06;100773.66;;;18.11;29.44
54806;BME280;62866;55.776;37.496;2023-04-19T10:32:41;100757.25;;;18.06;29.47
54806;BME280;62866;55.776;37.496;2023-04-19T10:35:19;100766.81;;;18.02;29.11
54806;BME280;62866;55.776;37.496;2023-04-19T10:40:59;100765.72;;;18.23;29.03
54806;BME280;62866;55.776;37.496;2023-04-19T10:43:32;100758.34;;;18.36;28.79
54806;BME280;62866;55.776;37.496;2023-04-19T10:46:01;100748.78;;;18.34;28.79
54806;BME280;62866;55.776;37.496;2023-04-19T10:48:31;100748.88;;;18.14;28.86
54806;BME280;62866;55.776;37.496;2023-04-19T10:51:04;100749.56;;;17.96;28.81
54806;BME280;62866;55.776;37.496;2023-04-19T10:56:14;100769.00;;;17.73;29.10
54806;BME280;62866;55.776;37.496;2023-04-19T11:01:31;100766.28;;;17.60;29.38
54806;BME280;62866;55.776;37.496;2023-04-19T11:04:02;100755.69;;;17.52;29.62
54806;BME280;62866;55.776;37.496;2023-04-19T11:06:28;100761.13;;;17.39;29.79
54806;BME280;62866;55.776;37.496;2023-04-19T11:08:53;100756.53;;;17.46;29.62
54806;BME280;62866;55.776;37.496;2023-04-19T11:11:20;100737.81;;;17.44;29.97
54806;BME280;62866;55.776;37.496;2023-04-19T11:13:54;100745.69;;;17.66;29.56
54806;BME280;62866;55.776;37.496;2023-04-19T11:16:20;100749.66;;;17.57;29.69
54806;BME280;62866;55.776;37.496;2023-04-19T11:18:46;100751.75;;;17.48;30.23
54806;BME280;62866;55.776;37.496;2023-04-19T11:21:12;100737.38;;;17.54;29.67
54806;BME280;62866;55.776;37.496;2023-04-19T11:23:41;100733.66;;;17.62;29.66
54806;BME280;62866;55.776;37.496;2023-04-19T11:26:09;100734.66;;;17.80;29.74
54806;BME280;62866;55.776;37.496;2023-04-19T11:28:37;100728.78;;;17.90;29.31
54806;BME280;62866;55.776;37.496;2023-04-19T11:31:03;100699.28;;;17.75;29.22
54806;BME280;62866;55.776;37.496;2023-04-19T11:33:33;100731.84;;;18.07;29.25
54806;BME280;62866;55.776;37.496;2023-04-19T11:35:58;100703.97;;;18.00;28.68
54806;BME280;62866;55.776;37.496;2023-04-19T11:38:27;100728.31;;;18.06;28.67
54806;BME280;62866;55.776;37.496;2023-04-19T11:41:02;100729.97;;;18.07;29.05
54806;BME280;62866;55.776;37.496;2023-04-19T11:43:34;100724.13;;;18.10;28.64
54806;BME280;62866;55.776;37.496;2023-04-19T11:46:07;100716.69;;;17.93;28.89
54806;BME280;62866;55.776;37.496;2023-04-19T11:48:33;100720.69;;;17.90;28.68
54806;BME280;62866;55.776;37.496;2023-04-19T11:51:00;100724.88;;;17.79;29.38
54806;BME280;62866;55.776;37.496;2023-04-19T11:53:26;100714.03;;;17.79;29.14
54806;BME280;62866;55.776;37.496;2023-04-19T11:55:56;100719.09;;;17.63;28.97
54806;BME280;62866;55.776;37.496;2023-04-19T12:01:01;100712.03;;;17.49;29.43
54806;BME280;62866;55.776;37.496;2023-04-19T12:03:28;100722.00;;;17.55;29.25
54806;BME280;62866;55.776;37.496;2023-04-19T12:06:00;100705.78;;;17.48;29.25
54806;BME280;62866;55.776;37.496;2023-04-19T12:08:34;100711.56;;;17.58;29.24
54806;BME280;62866;55.776;37.496;2023-04-19T12:11:01;100711.81;;;17.63;29.03
54806;BME280;62866;55.776;37.496;2023-04-19T12:13:28;100712.25;;;17.40;28.98
54806;BME280;62866;55.776;37.496;2023-04-19T12:15:55;100693.75;;;17.11;29.63
54806;BME280;62866;55.776;37.496;2023-04-19T12:18:21;100703.75;;;17.24;29.15
54806;BME280;62866;55.776;37.496;2023-04-19T12:20:48;100710.34;;;17.41;29.26
54806;BME280;62866;55.776;37.496;2023-04-19T12:23:16;100705.38;;;17.44;29.35
54806;BME280;62866;55.776;37.496;2023-04-19T12:25:43;100687.53;;;17.24;29.38
54806;BME280;62866;55.776;37.496;2023-04-19T12:28:10;100702.47;;;17.33;29.10
54806;BME280;62866;55.776;37.496;2023-04-19T12:30:37;100695.75;;;17.68;29.20
54806;BME280;62866;55.776;37.496;2023-04-19T12:33:03;100697.56;;;17.88;28.78
54806;BME280;62866;55.776;37.496;2023-04-19T12:35:29;100695.09;;;17.86;28.07
54806;BME280;62866;55.776;37.496;2023-04-19T12:37:57;100698.22;;;17.76;28.38
54806;BME280;62866;55.776;37.496;2023-04-19T12:40:23;100689.72;;;17.66;28.49
54806;BME280;62866;55.776;37.496;2023-04-19T12:42:49;100672.72;;;17.46;28.80
54806;BME280;62866;55.776;37.496;2023-04-19T12:45:16;100684.38;;;17.33;29.09
54806;BME280;62866;55.776;37.496;2023-04-19T12:47:43;100698.72;;;17.34;28.69
54806;BME280;62866;55.776;37.496;2023-04-19T12:50:09;100668.00;;;17.15;28.45
54806;BME280;62866;55.776;37.496;2023-04-19T12:52:35;100686.00;;;17.41;28.24
54806;BME280;62866;55.776;37.496;2023-04-19T12:55:01;100683.94;;;17.43;28.40